createdAt,value
2022-12-05T00:01:44.176Z,40.80
2022-12-05T00:04:14.645Z,40.10
2022-12-05T00:06:43.967Z,37.90
2022-12-05T00:09:13.903Z,34.80
2022-12-05T00:11:44.761Z,40.30
2022-12-05T00:14:13.958Z,38.30
2022-12-05T00:16:43.769Z,39.80
2022-12-05T00:19:15.696Z,39.20
2022-12-05T00:21:44.169Z,38.80
2022-12-05T00:24:15.629Z,38.10
2022-12-05T00:29:12.248Z,33.30
2022-12-05T00:31:40.097Z,39.30
2022-12-05T00:34:07.870Z,40.50
2022-12-05T00:36:37.124Z,40.70
2022-12-05T00:39:10.836Z,42.20
2022-12-05T00:41:38.850Z,38.20
2022-12-05T00:44:07.545Z,38.60
2022-12-05T00:46:35.995Z,39.20
2022-12-05T00:49:06.968Z,37.10
2022-12-05T00:51:39.389Z,39.30
2022-12-05T00:54:13.093Z,38.10
2022-12-05T00:56:41.224Z,40.70
2022-12-05T00:59:17.332Z,35.00
2022-12-05T01:01:47.533Z,39.60
2022-12-05T01:04:24.719Z,37.00
2022-12-05T01:06:58.109Z,36.50
2022-12-05T01:09:26.449Z,37.90
2022-12-05T01:11:54.455Z,41.10
2022-12-05T01:14:25.283Z,36.50
2022-12-05T01:16:55.723Z,38.20
2022-12-05T01:19:30.372Z,38.30
2022-12-05T01:21:59.403Z,38.60
2022-12-05T01:24:29.513Z,38.30
2022-12-05T01:26:58.534Z,38.50
2022-12-05T01:29:26.488Z,34.10
2022-12-05T01:31:55.332Z,39.00
2022-12-05T01:34:23.397Z,35.70
2022-12-05T01:36:51.382Z,37.10
2022-12-05T01:39:19.263Z,36.50
2022-12-05T01:41:50.193Z,38.00
2022-12-05T01:44:17.951Z,31.50
2022-12-05T01:46:52.104Z,35.70
2022-12-05T01:49:42.774Z,33.40
2022-12-05T01:52:20.019Z,36.90
2022-12-05T01:54:52.182Z,33.50
2022-12-05T01:57:20.037Z,31.20
2022-12-05T01:59:53.222Z,33.70
2022-12-05T02:02:21.752Z,35.30
2022-12-05T02:05:20.843Z,30.90
2022-12-05T02:07:49.500Z,34.70
2022-12-05T02:10:17.630Z,39.10
2022-12-05T02:12:46.766Z,36.10
2022-12-05T02:15:36.478Z,32.30
2022-12-05T02:18:35.094Z,36.90
2022-12-05T02:21:37.808Z,31.80
2022-12-05T02:24:42.564Z,34.10
2022-12-05T02:27:45.687Z,35.70
2022-12-05T02:30:20.980Z,33.50
2022-12-05T02:32:59.755Z,38.30
2022-12-05T02:35:57.809Z,31.10
2022-12-05T02:38:41.672Z,32.90
2022-12-05T02:42:13.344Z,38.70
2022-12-05T02:44:46.791Z,36.40
2022-12-05T02:47:20.647Z,36.20
2022-12-05T02:49:52.953Z,37.70
2022-12-05T02:52:23.006Z,36.20
2022-12-05T02:54:55.876Z,38.00
2022-12-05T02:57:24.713Z,36.50
2022-12-05T02:59:52.393Z,35.60
2022-12-05T03:02:49.677Z,40.10
2022-12-05T03:05:27.869Z,36.10
2022-12-05T03:08:00.355Z,43.70
2022-12-05T03:10:32.177Z,36.80
2022-12-05T03:13:10.486Z,37.40
2022-12-05T03:15:46.957Z,35.80
2022-12-05T03:18:26.760Z,37.40
2022-12-05T03:21:05.371Z,36.00
2022-12-05T03:23:47.462Z,35.10
2022-12-05T03:26:44.287Z,37.80
2022-12-05T03:29:39.277Z,35.50
2022-12-05T03:32:30.491Z,36.90
2022-12-05T03:35:20.754Z,36.20
2022-12-05T03:38:14.289Z,36.20
2022-12-05T03:40:52.418Z,39.80
2022-12-05T03:43:51.706Z,35.20
2022-12-05T03:46:37.767Z,31.70
2022-12-05T03:49:33.853Z,34.50
2022-12-05T03:52:28.914Z,36.10
2022-12-05T03:55:02.237Z,37.00
2022-12-05T03:57:43.823Z,35.40
2022-12-05T04:02:58.065Z,34.90
2022-12-05T04:05:49.653Z,35.20
2022-12-05T04:08:53.719Z,31.10
2022-12-05T04:11:26.403Z,36.70
2022-12-05T04:14:01.529Z,28.60
2022-12-05T04:17:04.365Z,33.60
2022-12-05T04:20:01.224Z,29.60
2022-12-05T04:22:29.971Z,32.00
2022-12-05T04:25:19.669Z,28.90
2022-12-05T04:28:05.885Z,31.10
2022-12-05T04:30:45.946Z,31.50
2022-12-05T04:33:31.616Z,27.10
2022-12-05T04:36:26.248Z,27.30
2022-12-05T04:39:03.648Z,30.20
2022-12-05T04:41:40.607Z,30.10
2022-12-05T04:44:14.621Z,34.30
2022-12-05T04:46:48.842Z,28.20
2022-12-05T04:49:24.920Z,28.40
2022-12-05T04:52:04.551Z,31.90
2022-12-05T04:54:38.861Z,31.50
2022-12-05T04:57:21.883Z,29.50
2022-12-05T04:59:50.392Z,34.00
2022-12-05T05:02:28.125Z,29.10
2022-12-05T05:05:00.309Z,27.30
2022-12-05T05:07:28.202Z,27.90
2022-12-05T05:09:57.338Z,31.20
2022-12-05T05:12:25.569Z,27.20
2022-12-05T05:14:53.314Z,25.80
2022-12-05T05:17:20.949Z,28.90
2022-12-05T05:19:48.691Z,26.20
2022-12-05T05:22:16.389Z,24.80
2022-12-05T05:24:44.064Z,22.50
2022-12-05T05:27:11.702Z,26.00
2022-12-05T05:29:39.378Z,29.80
2022-12-05T05:32:07.076Z,29.00
2022-12-05T05:34:34.889Z,24.90
2022-12-05T05:37:02.555Z,30.30
2022-12-05T05:39:30.398Z,26.10
2022-12-05T05:41:58.048Z,27.20
2022-12-05T05:44:25.709Z,25.70
2022-12-05T05:46:54.610Z,22.00
2022-12-05T05:49:22.509Z,22.70
2022-12-05T05:51:50.161Z,25.90
2022-12-05T05:54:17.809Z,26.00
2022-12-05T05:56:45.727Z,27.70
2022-12-05T05:59:13.463Z,22.20
2022-12-05T06:01:41.098Z,21.20
2022-12-05T06:04:08.865Z,23.20
2022-12-05T06:06:36.634Z,21.80
2022-12-05T06:09:07.516Z,25.90
2022-12-05T06:11:35.158Z,20.70
2022-12-05T06:14:02.886Z,20.00
2022-12-05T06:16:31.912Z,22.20
2022-12-05T06:18:59.884Z,24.60
2022-12-05T06:21:27.889Z,24.50
2022-12-05T06:23:56.186Z,21.70
2022-12-05T06:26:23.971Z,21.70
2022-12-05T06:28:51.827Z,21.90
2022-12-05T06:31:23.831Z,19.20
2022-12-05T06:33:51.659Z,21.10
2022-12-05T06:36:22.438Z,24.40
2022-12-05T06:38:50.237Z,24.50
2022-12-05T06:41:20.927Z,21.50
2022-12-05T06:43:48.884Z,21.30
2022-12-05T06:46:16.979Z,24.90
2022-12-05T06:48:45.055Z,19.70
2022-12-05T06:51:16.492Z,25.50
2022-12-05T06:53:44.813Z,22.80
2022-12-05T06:56:19.647Z,21.90
2022-12-05T06:58:50.152Z,21.90
2022-12-05T07:01:43.785Z,25.10
2022-12-05T07:04:16.823Z,24.10
2022-12-05T07:06:50.449Z,20.40
2022-12-05T07:09:22.383Z,26.20
2022-12-05T07:11:51.460Z,24.10
2022-12-05T07:14:45.813Z,23.80
2022-12-05T07:17:06.956Z,37.50
2022-12-05T07:19:35.300Z,20.40
2022-12-05T07:22:03.788Z,22.10
2022-12-05T07:24:31.500Z,21.70
2022-12-05T07:26:59.208Z,23.80
2022-12-05T07:29:26.866Z,22.50
2022-12-05T07:31:55.123Z,21.10
2022-12-05T07:34:22.938Z,24.60
2022-12-05T07:36:50.721Z,24.10
2022-12-05T07:39:18.578Z,22.30
2022-12-05T07:41:46.308Z,21.40
2022-12-05T07:44:16.846Z,22.40
2022-12-05T07:46:44.654Z,21.00
2022-12-05T07:49:12.415Z,23.50
2022-12-05T07:51:40.158Z,23.80
2022-12-05T07:54:08.113Z,24.10
2022-12-05T07:56:35.787Z,23.50
2022-12-05T07:59:03.672Z,25.10
2022-12-05T08:01:31.613Z,30.50
2022-12-05T08:04:00.139Z,22.10
2022-12-05T08:06:33.835Z,18.60
2022-12-05T08:09:01.558Z,26.20
2022-12-05T08:11:35.100Z,20.10
2022-12-05T08:14:06.205Z,24.50
2022-12-05T08:16:34.560Z,22.60
2022-12-05T08:19:06.881Z,27.90
2022-12-05T08:21:35.006Z,24.70
2022-12-05T08:24:06.278Z,25.90
2022-12-05T08:26:36.422Z,27.60
2022-12-05T08:29:08.747Z,23.40
2022-12-05T08:31:42.575Z,24.60
2022-12-05T08:34:13.137Z,28.20
2022-12-05T08:36:41.539Z,22.00
2022-12-05T08:39:15.821Z,24.10
2022-12-05T08:41:46.173Z,26.10
2022-12-05T08:44:18.719Z,20.20
2022-12-05T08:46:50.078Z,24.50
2022-12-05T08:49:19.232Z,28.50
2022-12-05T08:51:47.193Z,28.20
2022-12-05T08:54:16.051Z,27.50
2022-12-05T08:56:43.801Z,28.80
2022-12-05T08:59:11.747Z,26.00
2022-12-05T09:01:40.433Z,25.20
2022-12-05T09:04:09.018Z,26.20
2022-12-05T09:06:39.086Z,27.60
2022-12-05T09:09:11.570Z,27.20
2022-12-05T09:11:48.921Z,25.40
2022-12-05T09:14:17.960Z,31.80
2022-12-05T09:16:47.598Z,23.60
2022-12-05T09:19:27.593Z,22.80
2022-12-05T09:21:56.433Z,30.20
2022-12-05T09:24:25.485Z,23.20
2022-12-05T09:26:53.302Z,26.20
2022-12-05T09:29:20.982Z,24.60
2022-12-05T09:31:50.073Z,21.50
2022-12-05T09:34:19.972Z,28.70
2022-12-05T09:37:05.581Z,20.80
2022-12-05T09:39:38.207Z,22.30
2022-12-05T09:42:49.337Z,19.80
2022-12-05T09:45:30.545Z,19.60
2022-12-05T09:48:12.406Z,18.40
2022-12-05T09:50:57.441Z,18.90
2022-12-05T09:53:33.955Z,19.20
2022-12-05T09:56:28.430Z,20.10
2022-12-05T09:59:00.714Z,17.40
2022-12-05T10:01:41.799Z,19.80
2022-12-05T10:05:00.933Z,20.90
2022-12-05T10:07:43.979Z,19.60
2022-12-05T10:10:31.857Z,19.50
2022-12-05T10:13:20.778Z,19.40
2022-12-05T10:15:57.652Z,19.10
2022-12-05T10:18:40.360Z,19.60
2022-12-05T10:21:30.393Z,22.60
2022-12-05T10:24:02.679Z,19.00
2022-12-05T10:26:41.160Z,20.50
2022-12-05T10:29:17.865Z,20.60
2022-12-05T10:31:49.394Z,19.20
2022-12-05T10:34:45.353Z,17.80
2022-12-05T10:37:24.149Z,19.00
2022-12-05T10:39:52.622Z,20.10
2022-12-05T10:42:29.085Z,19.20
2022-12-05T10:45:04.986Z,17.70
2022-12-05T10:47:34.468Z,18.10
2022-12-05T10:50:20.513Z,18.90
2022-12-05T10:52:48.383Z,19.30
2022-12-05T10:55:18.546Z,15.90
2022-12-05T10:58:10.365Z,18.00
2022-12-05T11:00:46.894Z,15.50
2022-12-05T11:03:26.725Z,15.70
2022-12-05T11:06:01.630Z,17.70
2022-12-05T11:09:03.089Z,17.20
2022-12-05T11:11:30.492Z,15.00
2022-12-05T11:14:03.466Z,17.60
2022-12-05T11:16:39.113Z,18.80
2022-12-05T11:19:22.058Z,15.40
2022-12-05T11:21:50.549Z,18.40
2022-12-05T11:24:29.208Z,16.50
2022-12-05T11:27:00.569Z,16.40
2022-12-05T11:29:36.054Z,15.30
2022-12-05T11:32:19.804Z,17.90
2022-12-05T11:35:03.285Z,14.30
2022-12-05T11:37:42.273Z,25.30
2022-12-05T11:40:50.767Z,19.40
2022-12-05T11:43:53.923Z,17.70
2022-12-05T11:46:55.161Z,21.00
2022-12-05T11:50:17.359Z,17.90
2022-12-05T11:59:40.427Z,17.90
2022-12-05T12:03:00.940Z,15.50
2022-12-05T12:06:15.098Z,17.20
2022-12-05T12:09:07.311Z,18.70
2022-12-05T12:11:57.346Z,14.90
2022-12-05T12:14:59.038Z,21.30
2022-12-05T12:20:37.648Z,17.20
2022-12-05T12:23:59.951Z,17.70
2022-12-05T12:26:42.627Z,14.30
2022-12-05T12:29:34.685Z,13.80
2022-12-05T12:32:47.980Z,15.60
2022-12-05T12:35:45.056Z,14.80
2022-12-05T12:38:51.025Z,19.30
2022-12-05T12:41:35.708Z,16.20
2022-12-05T12:44:22.396Z,14.30
2022-12-05T12:46:57.493Z,15.10
2022-12-05T12:49:41.535Z,16.50
2022-12-05T12:52:17.924Z,15.60
2022-12-05T12:55:05.015Z,12.70
2022-12-05T12:58:18.001Z,13.00
2022-12-05T13:01:31.272Z,10.20
2022-12-05T13:04:14.763Z,8.10
2022-12-05T13:06:55.113Z,9.20
2022-12-05T13:10:14.107Z,10.60
2022-12-05T13:12:44.560Z,7.90
2022-12-05T13:15:27.635Z,8.80
2022-12-05T13:17:55.782Z,10.60
2022-12-05T13:20:29.919Z,12.10
2022-12-05T13:23:00.905Z,12.50
2022-12-05T13:25:38.869Z,8.10
2022-12-05T13:28:26.010Z,7.60
2022-12-05T13:30:58.674Z,10.50
2022-12-05T13:33:35.513Z,8.80
2022-12-05T13:36:28.229Z,9.20
2022-12-05T13:39:40.894Z,11.00
2022-12-05T13:42:27.839Z,11.20
2022-12-05T13:45:04.711Z,9.20
2022-12-05T13:48:04.191Z,9.00
2022-12-05T13:50:43.150Z,7.40
2022-12-05T13:53:38.235Z,8.60
2022-12-05T13:56:27.833Z,8.20
2022-12-05T13:58:58.410Z,10.30
2022-12-05T14:01:26.241Z,8.20
2022-12-05T14:03:59.573Z,8.90
2022-12-05T14:06:39.347Z,10.30
2022-12-05T14:09:19.172Z,11.10
2022-12-05T14:12:12.270Z,6.70
2022-12-05T14:14:58.225Z,11.60
2022-12-05T14:17:42.410Z,9.90
2022-12-05T14:20:27.503Z,8.10
2022-12-05T14:23:14.931Z,9.80
2022-12-05T14:26:36.832Z,10.80
2022-12-05T14:29:41.216Z,8.40
2022-12-05T14:32:34.167Z,7.20
2022-12-05T14:35:13.456Z,12.50
2022-12-05T14:38:05.719Z,9.10
2022-12-05T14:40:51.435Z,10.00
2022-12-05T14:43:31.428Z,11.70
2022-12-05T14:46:29.836Z,10.00
2022-12-05T14:48:58.570Z,11.80
2022-12-05T14:51:32.285Z,13.80
2022-12-05T14:54:08.036Z,9.90
2022-12-05T14:56:44.107Z,10.10
2022-12-05T14:59:32.104Z,10.40
2022-12-05T15:02:05.139Z,8.40
2022-12-05T15:04:47.446Z,9.00
2022-12-05T15:07:22.232Z,7.80
2022-12-05T15:10:05.032Z,11.80
2022-12-05T15:12:48.285Z,9.50
2022-12-05T15:15:43.461Z,9.50
2022-12-05T15:18:28.605Z,10.00
2022-12-05T15:21:08.705Z,5.00
2022-12-05T15:23:58.491Z,7.50
2022-12-05T15:26:49.001Z,7.90
2022-12-05T15:29:20.494Z,13.20
2022-12-05T15:32:10.813Z,10.60
2022-12-05T15:34:56.713Z,13.80
2022-12-05T15:37:58.633Z,12.30
2022-12-05T15:42:57.270Z,11.10
2022-12-05T15:45:30.511Z,9.60
2022-12-05T15:48:07.306Z,11.90
2022-12-05T15:50:52.084Z,6.60
2022-12-05T15:53:43.941Z,8.80
2022-12-05T15:56:33.567Z,5.70
2022-12-05T15:59:17.327Z,10.00
2022-12-05T16:02:04.330Z,11.10
2022-12-05T16:04:46.364Z,7.20
2022-12-05T16:07:15.483Z,9.20
2022-12-05T16:09:46.393Z,10.80
2022-12-05T16:12:39.731Z,11.10
2022-12-05T16:15:28.746Z,8.70
2022-12-05T16:18:00.163Z,8.70
2022-12-05T16:20:35.027Z,11.10
2022-12-05T16:23:22.877Z,11.00
2022-12-05T16:25:52.035Z,7.40
2022-12-05T16:28:22.029Z,8.90
2022-12-05T16:31:03.142Z,7.10
2022-12-05T16:33:32.357Z,11.00
2022-12-05T16:36:12.495Z,11.00
2022-12-05T16:38:43.122Z,9.30
2022-12-05T16:41:15.233Z,9.80
2022-12-05T16:43:45.834Z,9.50
2022-12-05T16:46:13.688Z,8.70
2022-12-05T16:48:45.136Z,8.80
2022-12-05T16:51:25.915Z,7.20
2022-12-05T16:53:55.812Z,9.10
2022-12-05T16:56:27.936Z,9.40
2022-12-05T16:58:57.188Z,6.20
2022-12-05T17:01:27.649Z,6.90
2022-12-05T17:03:57.178Z,5.80
2022-12-05T17:06:26.358Z,8.50
2022-12-05T17:08:55.037Z,10.50
2022-12-05T17:11:30.918Z,9.70
2022-12-05T17:13:59.158Z,12.40
2022-12-05T17:16:27.552Z,6.40
2022-12-05T17:18:55.452Z,10.50
2022-12-05T17:21:26.786Z,10.00
2022-12-05T17:23:55.222Z,9.10
2022-12-05T17:26:23.446Z,8.60
2022-12-05T17:28:51.488Z,9.80
2022-12-05T17:31:23.160Z,10.20
2022-12-05T17:33:53.972Z,10.30
2022-12-05T17:36:21.959Z,12.00
2022-12-05T17:38:50.168Z,12.20
2022-12-05T17:41:22.837Z,14.40
2022-12-05T17:43:51.445Z,10.90
2022-12-05T17:46:23.411Z,10.80
2022-12-05T17:48:52.459Z,12.10
2022-12-05T17:51:21.271Z,13.60
2022-12-05T17:53:49.081Z,10.50
2022-12-05T17:56:16.787Z,9.20
2022-12-05T17:58:44.579Z,11.50
2022-12-05T18:01:19.386Z,8.30
2022-12-05T18:03:49.003Z,9.90
2022-12-05T18:06:17.987Z,9.20
2022-12-05T18:08:45.845Z,11.50
2022-12-05T18:11:14.789Z,14.70
2022-12-05T18:13:42.686Z,12.10
2022-12-05T18:16:11.085Z,9.30
2022-12-05T18:18:39.397Z,9.60
2022-12-05T18:21:10.990Z,9.20
2022-12-05T18:23:40.358Z,12.00
2022-12-05T18:26:10.580Z,11.60
2022-12-05T18:28:39.710Z,13.10
2022-12-05T18:31:08.970Z,11.00
2022-12-05T18:33:39.656Z,8.80
2022-12-05T18:36:15.832Z,13.30
2022-12-05T18:38:53.625Z,17.10
2022-12-05T18:41:23.677Z,13.10
2022-12-05T18:43:51.473Z,10.70
2022-12-05T18:46:19.563Z,10.30
2022-12-05T18:48:48.787Z,12.10
2022-12-05T18:51:21.340Z,11.80
2022-12-05T18:53:52.660Z,12.50
2022-12-05T18:56:29.512Z,12.00
2022-12-05T18:59:16.496Z,10.40
2022-12-05T19:01:45.871Z,10.60
2022-12-05T19:04:17.859Z,12.00
2022-12-05T19:06:57.811Z,11.80
2022-12-05T19:09:29.459Z,15.00
2022-12-05T19:11:59.453Z,10.00
2022-12-05T19:14:30.467Z,10.50
2022-12-05T19:17:00.434Z,13.40
2022-12-05T19:19:29.049Z,15.00
2022-12-05T19:21:58.715Z,11.00
2022-12-05T19:24:26.638Z,9.20
2022-12-05T19:26:54.352Z,14.40
2022-12-05T19:29:22.170Z,9.50
2022-12-05T19:31:49.919Z,9.70
2022-12-05T19:34:17.576Z,9.30
2022-12-05T19:36:46.311Z,13.30
2022-12-05T19:39:18.805Z,17.80
2022-12-05T19:41:47.222Z,10.30
2022-12-05T19:44:18.907Z,8.90
2022-12-05T19:46:49.144Z,14.00
2022-12-05T19:49:17.444Z,12.30
2022-12-05T19:51:45.848Z,14.90
2022-12-05T19:54:17.598Z,12.20
2022-12-05T19:56:45.647Z,13.30
2022-12-05T19:59:18.408Z,10.40
2022-12-05T20:01:46.501Z,13.40
2022-12-05T20:04:16.211Z,9.30
2022-12-05T20:06:49.412Z,11.80
2022-12-05T20:09:21.428Z,10.40
2022-12-05T20:11:55.170Z,8.90
2022-12-05T20:14:25.638Z,8.30
2022-12-05T20:16:54.135Z,10.10
2022-12-05T20:19:23.850Z,12.20
2022-12-05T20:21:51.627Z,13.80
2022-12-05T20:24:19.306Z,12.10
2022-12-05T20:26:47.109Z,11.50
2022-12-05T20:29:14.800Z,13.80
2022-12-05T20:31:43.590Z,9.30
2022-12-05T20:34:15.039Z,15.50
2022-12-05T20:36:43.608Z,11.30
2022-12-05T20:39:15.719Z,11.00
2022-12-05T20:41:44.104Z,10.00
2022-12-05T20:44:15.794Z,12.70
2022-12-05T20:46:44.312Z,11.10
2022-12-05T20:49:13.491Z,10.90
2022-12-05T20:51:44.032Z,14.40
2022-12-05T20:54:14.367Z,11.30
2022-12-05T20:56:42.621Z,13.00
2022-12-05T20:59:14.631Z,11.40
2022-12-05T21:01:42.699Z,13.90
2022-12-05T21:04:12.956Z,12.60
2022-12-05T21:06:43.615Z,10.90
2022-12-05T21:09:18.603Z,12.30
2022-12-05T21:11:46.392Z,9.90
2022-12-05T21:14:14.777Z,10.60
2022-12-05T21:16:42.484Z,9.60
2022-12-05T21:19:10.355Z,12.30
2022-12-05T21:21:38.646Z,8.20
2022-12-05T21:24:07.882Z,12.80
2022-12-05T21:26:35.899Z,7.70
2022-12-05T21:29:07.040Z,12.80
2022-12-05T21:31:39.574Z,12.70
2022-12-05T21:34:16.013Z,7.80
2022-12-05T21:36:44.850Z,12.40
2022-12-05T21:39:12.734Z,9.40
2022-12-05T21:41:40.749Z,9.80
2022-12-05T21:44:08.560Z,8.00
2022-12-05T21:46:36.296Z,8.80
2022-12-05T21:49:04.071Z,9.50
2022-12-05T21:51:32.041Z,12.50
2022-12-05T21:53:59.718Z,12.60
2022-12-05T21:56:28.373Z,8.10
2022-12-05T21:58:56.018Z,11.30
2022-12-05T22:01:27.954Z,12.50
2022-12-05T22:03:59.495Z,11.60
2022-12-05T22:08:56.239Z,10.80
2022-12-05T22:11:24.914Z,8.30
2022-12-05T22:13:53.357Z,15.10
2022-12-05T22:16:21.883Z,9.10
2022-12-05T22:18:49.766Z,13.40
2022-12-05T22:21:20.743Z,11.70
2022-12-05T22:23:49.699Z,9.20
2022-12-05T22:26:22.376Z,16.60
2022-12-05T22:28:52.184Z,11.90
2022-12-05T22:31:21.599Z,11.20
2022-12-05T22:33:49.764Z,9.20
2022-12-05T22:36:19.980Z,10.40
2022-12-05T22:38:48.585Z,10.60
2022-12-05T22:41:23.619Z,7.90
2022-12-05T22:44:00.024Z,8.50
2022-12-05T22:46:29.197Z,10.10
2022-12-05T22:48:57.285Z,9.90
2022-12-05T22:51:27.560Z,8.10
2022-12-05T22:53:56.612Z,8.50
2022-12-05T22:56:27.505Z,11.40
2022-12-05T22:58:58.387Z,8.10
2022-12-05T23:01:34.472Z,9.00
2022-12-05T23:04:06.249Z,8.80
2022-12-05T23:06:36.085Z,6.70
2022-12-05T23:09:09.261Z,11.00
2022-12-05T23:11:38.027Z,8.80
2022-12-05T23:14:07.729Z,9.80
2022-12-05T23:16:37.080Z,10.60
2022-12-05T23:19:06.386Z,9.70
2022-12-05T23:21:38.454Z,10.00
2022-12-05T23:24:10.328Z,14.50
2022-12-05T23:26:45.405Z,9.60
2022-12-05T23:29:14.976Z,11.00
2022-12-05T23:31:43.247Z,9.30
2022-12-05T23:34:12.441Z,10.90
2022-12-05T23:36:40.622Z,9.80
2022-12-05T23:39:08.819Z,9.30
2022-12-05T23:41:36.730Z,8.20
2022-12-05T23:44:05.095Z,10.10
2022-12-05T23:46:34.642Z,9.90
2022-12-05T23:49:03.832Z,9.40
2022-12-05T23:51:31.834Z,8.90
2022-12-05T23:54:02.123Z,8.40
2022-12-05T23:56:33.348Z,11.10
2022-12-05T23:59:05.256Z,12.10
